Time;durP1;ratioP1;P1;durP2;ratioP2;P2;SDS_P1;SDS_P2;PMS_P1;PMS_P2;Temp;Humidity;BMP_temperature;BMP_pressure;BME280_temperature;BME280_humidity;BME280_pressure;Samples;Min_cycle;Max_cycle;Signal;HPM_P1;HPM_P2
2022/02/10 00:08:15;;;;;;;;;;;;;;;28.66;25.04;101297.03;5031743;28;1014;-76
2022/02/10 00:13:58;;;;;;;;;;;;;;;29.27;24.03;101289.66;5032900;28;943;-76
2022/02/10 00:17:01;;;;;;;;;;;;;;;29.30;23.66;101299.53;5032714;28;1393;-75
2022/02/10 00:19:43;;;;;;;;;;;;;;;28.02;25.31;101288.81;5032519;28;1918;-77
2022/02/10 00:22:17;;;;;;;;;;;;;;;27.95;25.55;101293.59;5031401;28;919;-75
2022/02/10 00:36:04;;;;;;;;;;;;;;;29.07;24.36;101289.91;5031342;28;1310;-77
2022/02/10 00:38:35;;;;;;;;;;;;;;;28.68;24.90;101290.16;5031915;28;1907;-76
2022/02/10 00:41:01;;;;;;;;;;;;;;;29.36;24.06;101291.03;5031837;28;1018;-77
2022/02/10 00:43:27;;;;;;;;;;;;;;;28.19;25.29;101295.56;5031909;28;932;-78
2022/02/10 00:45:54;;;;;;;;;;;;;;;29.28;24.35;101283.00;5029988;28;1294;-77
2022/02/10 00:48:20;;;;;;;;;;;;;;;29.19;24.25;101276.84;5013850;28;1228;-77
2022/02/10 00:50:49;;;;;;;;;;;;;;;29.91;23.51;101283.56;5030445;28;809;-77
2022/02/10 00:53:19;;;;;;;;;;;;;;;29.32;24.14;101284.22;5030122;28;936;-75
2022/02/10 00:55:47;;;;;;;;;;;;;;;28.34;25.35;101281.25;5030055;28;1424;-74
2022/02/10 00:58:21;;;;;;;;;;;;;;;29.11;24.31;101282.75;5047135;28;1917;-77
2022/02/10 01:30:51;;;;;;;;;;;;;;;29.71;23.71;101270.72;5030839;28;907;-77
2022/02/10 01:33:19;;;;;;;;;;;;;;;30.03;23.00;101259.25;5029586;28;899;-76
2022/02/10 01:35:45;;;;;;;;;;;;;;;30.38;22.55;101257.56;5030455;28;1317;-75
2022/02/10 01:38:11;;;;;;;;;;;;;;;30.57;22.72;101255.47;5029323;28;1910;-76
2022/02/10 01:41:03;;;;;;;;;;;;;;;30.70;22.62;101240.38;5030835;28;876;-77
2022/02/10 02:05:30;;;;;;;;;;;;;;;29.91;23.32;101237.97;5048895;28;947;-77
2022/02/10 02:07:59;;;;;;;;;;;;;;;28.85;24.30;101251.28;5049070;28;1340;-77
2022/02/10 02:10:25;;;;;;;;;;;;;;;29.33;23.81;101235.63;5050467;28;773;-75
2022/02/10 02:12:51;;;;;;;;;;;;;;;29.82;23.35;101229.88;5050217;28;859;-76
2022/02/10 02:15:19;;;;;;;;;;;;;;;30.13;23.28;101227.00;5050130;28;1019;-74
2022/02/10 02:17:45;;;;;;;;;;;;;;;30.35;22.67;101232.84;5048754;28;1461;-75
2022/02/10 02:20:12;;;;;;;;;;;;;;;29.83;23.36;101228.78;5050290;28;1979;-76
2022/02/10 02:22:40;;;;;;;;;;;;;;;29.09;24.02;101223.47;5050903;28;974;-78
2022/02/10 02:25:07;;;;;;;;;;;;;;;29.70;23.56;101223.41;5049807;28;947;-76
2022/02/10 02:27:43;;;;;;;;;;;;;;;29.94;22.99;101221.53;5050208;28;1298;-79
2022/02/10 02:30:20;;;;;;;;;;;;;;;29.15;23.87;101225.28;5050734;28;1049;-79
2022/02/10 02:33:03;;;;;;;;;;;;;;;28.61;24.69;101215.88;5049014;28;1010;-78
2022/02/10 02:35:41;;;;;;;;;;;;;;;28.10;24.98;101217.94;5050013;28;990;-78
2022/02/10 02:38:32;;;;;;;;;;;;;;;29.12;23.96;101216.56;5049022;28;1918;-75
2022/02/10 03:05:41;;;;;;;;;;;;;;;29.53;23.95;101196.16;5012398;28;1088;-76
2022/02/10 03:08:16;;;;;;;;;;;;;;;30.34;23.02;101186.34;5033709;28;1525;-77
2022/02/10 03:11:00;;;;;;;;;;;;;;;30.10;23.38;101179.94;5034071;28;1003;-78
2022/02/10 03:13:31;;;;;;;;;;;;;;;29.18;24.79;101182.94;5033730;28;1039;-78
2022/02/10 03:16:13;;;;;;;;;;;;;;;29.72;24.39;101179.28;5031997;28;1326;-76
2022/02/10 03:18:44;;;;;;;;;;;;;;;29.58;24.77;101167.47;5035298;28;1918;-76
2022/02/10 03:21:35;;;;;;;;;;;;;;;29.64;24.47;101165.66;5034974;28;773;-77
2022/02/10 04:08:27;;;;;;;;;;;;;;;30.14;23.01;101106.41;5005920;28;1004;-77
2022/02/10 04:13:51;;;;;;;;;;;;;;;29.94;23.17;101109.59;5028814;28;1130;-76
2022/02/10 04:16:23;;;;;;;;;;;;;;;30.72;22.33;101107.38;5014362;28;1256;-75
2022/02/10 04:21:44;;;;;;;;;;;;;;;30.15;23.14;101104.50;5023848;28;1260;-77
2022/02/10 04:24:24;;;;;;;;;;;;;;;29.69;23.38;101104.25;5032160;28;864;-76
2022/02/10 04:26:59;;;;;;;;;;;;;;;29.89;23.40;101099.16;5032510;28;1325;-77
2022/02/10 04:30:04;;;;;;;;;;;;;;;29.35;23.97;101095.59;5031294;28;797;-75
2022/02/10 04:37:19;;;;;;;;;;;;;;;29.28;23.86;101104.09;5031172;28;841;-77
2022/02/10 04:54:58;;;;;;;;;;;;;;;29.14;23.82;101075.47;5031193;28;841;-76
2022/02/10 04:57:39;;;;;;;;;;;;;;;29.69;23.17;101070.69;5030237;28;1322;-78
2022/02/10 05:00:25;;;;;;;;;;;;;;;28.82;23.92;101072.13;5031626;28;1922;-76
2022/02/10 05:06:24;;;;;;;;;;;;;;;28.67;24.00;101067.81;5029826;28;1396;-75
2022/02/10 05:12:18;;;;;;;;;;;;;;;29.30;23.36;101061.94;5030298;28;2182;-75
2022/02/10 05:17:26;;;;;;;;;;;;;;;29.55;23.34;101059.75;5029667;28;1584;-76
2022/02/10 05:20:19;;;;;;;;;;;;;;;29.76;23.12;101062.16;5029923;28;1956;-77
2022/02/10 05:23:01;;;;;;;;;;;;;;;30.19;22.53;101058.94;5031083;28;994;-77
2022/02/10 05:33:53;;;;;;;;;;;;;;;30.15;22.46;101049.34;4988010;28;1365;-77
2022/02/10 05:36:23;;;;;;;;;;;;;;;30.00;22.94;101049.03;5028639;28;1735;-77
2022/02/10 05:38:57;;;;;;;;;;;;;;;30.17;22.56;101044.38;5028744;28;1969;-77
2022/02/10 05:41:54;;;;;;;;;;;;;;;30.18;22.41;101042.41;5028739;28;1450;-79
2022/02/10 05:44:34;;;;;;;;;;;;;;;30.59;22.34;101033.97;5027553;28;1463;-77
2022/02/10 05:50:13;;;;;;;;;;;;;;;30.15;22.74;101043.75;5027673;28;998;-77
2022/02/10 05:58:08;;;;;;;;;;;;;;;29.38;23.45;101030.81;5025949;28;1387;-77
2022/02/10 06:50:28;;;;;;;;;;;;;;;29.40;23.02;100997.91;5029925;28;1576;-78
2022/02/10 06:53:06;;;;;;;;;;;;;;;29.88;22.73;100990.31;5028785;28;1155;-74
2022/02/10 06:56:05;;;;;;;;;;;;;;;29.38;22.89;100986.09;5028292;28;1546;-75
2022/02/10 07:02:38;;;;;;;;;;;;;;;29.39;23.00;100979.41;5029500;28;1711;-78
2022/02/10 07:04:30;;;;;;;;;;;;;;;29.21;23.38;100972.00;5008238;28;1413;-76
2022/02/10 07:07:18;;;;;;;;;;;;;;;28.89;23.39;100972.34;5025221;28;1400;-79
2022/02/10 07:12:51;;;;;;;;;;;;;;;29.62;22.44;100963.69;5021574;28;1438;-75
2022/02/10 07:48:32;;;;;;;;;;;;;;;28.50;23.40;100927.19;4995342;28;1176;-75
2022/02/10 07:53:56;;;;;;;;;;;;;;;29.10;23.10;100922.53;5011527;28;1131;-75
2022/02/10 07:59:34;;;;;;;;;;;;;;;30.04;21.96;100930.75;5023132;28;1981;-77
2022/02/10 08:54:59;;;;;;;;;;;;;;;30.19;21.90;100882.63;5011871;28;1209;-75
2022/02/10 08:57:36;;;;;;;;;;;;;;;29.30;22.74;100877.47;5015273;28;1561;-79
2022/02/10 09:05:43;;;;;;;;;;;;;;;29.71;22.28;100873.56;5031379;28;1269;-77
2022/02/10 09:14:10;;;;;;;;;;;;;;;29.91;22.54;100858.31;5026566;28;1431;-77
2022/02/10 10:00:53;;;;;;;;;;;;;;;30.93;21.34;100821.09;5104395;28;913;-75
2022/02/10 10:03:25;;;;;;;;;;;;;;;31.98;20.39;100821.00;5099774;28;1914;-76
2022/02/10 10:05:57;;;;;;;;;;;;;;;31.85;21.18;100816.66;5106395;28;1442;-76
2022/02/10 10:08:34;;;;;;;;;;;;;;;32.10;20.26;100812.41;5105255;28;947;-77
2022/02/10 10:14:09;;;;;;;;;;;;;;;32.17;20.86;100809.41;5106370;28;1480;-75
2022/02/10 10:16:47;;;;;;;;;;;;;;;31.82;20.96;100802.31;5106795;28;1558;-77
2022/02/10 10:19:32;;;;;;;;;;;;;;;31.41;20.98;100801.84;5107280;28;998;-77
2022/02/10 10:22:08;;;;;;;;;;;;;;;31.75;20.91;100794.13;5105920;28;1270;-76
2022/02/10 10:25:01;;;;;;;;;;;;;;;31.67;20.78;100791.78;5100521;28;1913;-77
2022/02/10 10:27:38;;;;;;;;;;;;;;;32.13;20.49;100791.38;5119335;27;1430;-77
2022/02/10 10:58:08;;;;;;;;;;;;;;;31.31;21.04;100755.75;5077940;28;1550;-76
2022/02/10 11:03:48;;;;;;;;;;;;;;;31.12;21.70;100755.25;5094624;28;1975;-76
2022/02/10 11:07:20;;;;;;;;;;;;;;;29.20;23.21;100750.38;5107687;28;1446;-76
2022/02/10 11:38:03;;;;;;;;;;;;;;;30.23;22.33;100727.06;5106985;28;1581;-79
2022/02/10 11:40:36;;;;;;;;;;;;;;;30.29;22.45;100724.34;5073952;28;821;-77
2022/02/10 11:43:15;;;;;;;;;;;;;;;29.70;22.74;100718.09;5105178;28;1999;-76
2022/02/10 11:46:16;;;;;;;;;;;;;;;29.27;23.63;100725.09;5111979;28;1050;-76
2022/02/10 12:00:32;;;;;;;;;;;;;;;30.21;22.54;100703.25;5110897;28;832;-74
2022/02/10 12:36:42;;;;;;;;;;;;;;;30.36;22.56;100694.25;5040335;28;895;-75
2022/02/10 12:39:38;;;;;;;;;;;;;;;30.74;22.74;100686.09;4997615;28;1336;-73
2022/02/10 13:24:57;;;;;;;;;;;;;;;29.66;23.45;100696.44;5012160;28;1926;-75
2022/02/10 14:09:17;;;;;;;;;;;;;;;25.07;27.96;100801.44;5011984;28;1405;-74
2022/02/10 14:15:00;;;;;;;;;;;;;;;26.77;26.31;100814.06;5107351;27;1631;-73
2022/02/10 14:17:32;;;;;;;;;;;;;;;26.33;26.45;100825.13;5093710;28;1472;-74
2022/02/10 14:20:00;;;;;;;;;;;;;;;26.66;25.95;100818.41;5085446;28;1481;-74
2022/02/10 14:22:38;;;;;;;;;;;;;;;26.42;26.74;100823.78;5087472;28;1037;-73
2022/02/10 14:27:49;;;;;;;;;;;;;;;26.95;26.09;100829.91;5086712;28;1341;-73
2022/02/10 14:30:17;;;;;;;;;;;;;;;26.45;25.92;100822.47;5068722;28;1341;-72
2022/02/10 14:32:45;;;;;;;;;;;;;;;27.11;25.12;100828.44;5085693;28;1969;-72
2022/02/10 14:35:17;;;;;;;;;;;;;;;26.68;26.13;100821.81;5086456;28;1792;-74
2022/02/10 14:38:05;;;;;;;;;;;;;;;27.16;25.05;100829.44;5087299;28;1344;-75
2022/02/10 14:40:57;;;;;;;;;;;;;;;27.03;25.69;100824.03;5086855;28;1342;-75
2022/02/10 15:10:44;;;;;;;;;;;;;;;27.60;24.82;100826.56;5086813;28;1428;-71
2022/02/10 15:11:25;;;;;;;;;;;;;;;27.90;24.17;100832.13;5083561;28;1878;-74
2022/02/10 15:17:13;;;;;;;;;;;;;;;27.86;23.56;100830.91;5036298;28;1471;-75
2022/02/10 15:35:35;;;;;;;;;;;;;;;28.12;23.72;100828.81;5075322;28;2213;-76
2022/02/10 15:36:37;;;;;;;;;;;;;;;27.92;23.20;100833.84;5090223;28;1451;-73
2022/02/10 15:50:16;;;;;;;;;;;;;;;26.43;24.73;100849.66;5073496;28;1453;-74
2022/02/10 15:53:16;;;;;;;;;;;;;;;27.39;23.98;100841.84;5074192;28;1985;-74
2022/02/10 16:17:46;;;;;;;;;;;;;;;26.50;24.75;100889.44;5033182;28;1309;-73
2022/02/10 16:20:18;;;;;;;;;;;;;;;26.98;24.75;100890.72;5081876;28;1480;-74
2022/02/10 16:22:58;;;;;;;;;;;;;;;26.84;24.51;100888.06;5057620;28;1420;-73
2022/02/10 16:25:26;;;;;;;;;;;;;;;27.61;23.86;100885.97;5056057;28;1489;-74
2022/02/10 16:28:00;;;;;;;;;;;;;;;26.06;25.43;100883.75;5091520;28;1382;-73
2022/02/10 16:30:27;;;;;;;;;;;;;;;26.03;25.25;100878.63;5091194;28;1659;-76
2022/02/10 16:32:54;;;;;;;;;;;;;;;26.36;24.96;100877.53;5091492;28;1969;-72
2022/02/10 16:35:24;;;;;;;;;;;;;;;26.40;25.27;100876.00;5091173;28;1013;-74
2022/02/10 16:37:51;;;;;;;;;;;;;;;25.63;26.13;100873.25;5090006;28;1579;-73
2022/02/10 16:40:17;;;;;;;;;;;;;;;24.77;26.92;100875.19;5091457;28;1552;-75
2022/02/10 16:42:47;;;;;;;;;;;;;;;25.45;26.32;100871.22;5091578;28;901;-74
2022/02/10 16:45:13;;;;;;;;;;;;;;;25.33;26.35;100874.63;5090748;28;1480;-74
2022/02/10 16:47:40;;;;;;;;;;;;;;;26.29;25.50;100882.31;5092135;28;1307;-75
2022/02/10 16:50:06;;;;;;;;;;;;;;;25.82;25.67;100885.38;5091202;28;1623;-72
2022/02/10 16:52:38;;;;;;;;;;;;;;;26.31;25.33;100886.56;5091592;28;1073;-74
2022/02/10 16:55:13;;;;;;;;;;;;;;;26.92;24.68;100880.50;5102528;28;1914;-75
2022/02/10 16:57:47;;;;;;;;;;;;;;;26.59;24.76;100887.19;5064282;28;1559;-74
2022/02/10 17:00:35;;;;;;;;;;;;;;;26.52;25.16;100887.25;5091223;28;1532;-76
2022/02/10 17:03:18;;;;;;;;;;;;;;;26.81;24.61;100891.31;5070833;28;947;-76
2022/02/10 17:05:57;;;;;;;;;;;;;;;27.59;23.68;100896.50;5071830;28;959;-75
2022/02/10 17:14:09;;;;;;;;;;;;;;;26.71;24.89;100921.59;5070895;28;1950;-75
2022/02/10 17:19:35;;;;;;;;;;;;;;;26.59;24.84;100924.25;5053082;28;994;-72
2022/02/10 17:27:28;;;;;;;;;;;;;;;26.34;25.23;100924.22;5071649;28;1454;-75
2022/02/10 17:30:46;;;;;;;;;;;;;;;25.48;26.01;100924.41;5073115;28;1697;-73
2022/02/10 17:33:16;;;;;;;;;;;;;;;25.60;26.26;100932.06;5076100;28;1968;-72
2022/02/10 17:35:55;;;;;;;;;;;;;;;26.16;25.46;100933.31;5071516;28;1528;-75
2022/02/10 17:47:08;;;;;;;;;;;;;;;25.30;26.83;100940.88;5099504;28;1471;-74
2022/02/10 17:52:21;;;;;;;;;;;;;;;27.08;24.68;100946.75;5085798;28;1485;-77
2022/02/10 17:54:48;;;;;;;;;;;;;;;26.41;25.41;100941.72;5086812;28;1902;-76
2022/02/10 17:57:14;;;;;;;;;;;;;;;26.55;24.67;100945.22;5088982;28;1543;-73
2022/02/10 17:59:40;;;;;;;;;;;;;;;26.62;24.75;100953.53;5070465;28;1459;-72
2022/02/10 18:02:07;;;;;;;;;;;;;;;26.64;24.85;100956.97;5086442;28;1423;-72
2022/02/10 18:04:34;;;;;;;;;;;;;;;25.84;26.36;100953.56;5088292;28;1504;-75
2022/02/10 18:07:03;;;;;;;;;;;;;;;26.25;25.49;100953.38;5087772;28;1449;-73
2022/02/10 18:12:57;;;;;;;;;;;;;;;25.62;26.18;100952.16;5087338;28;1536;-75
2022/02/10 18:15:20;;;;;;;;;;;;;;;26.59;25.04;100954.00;5069492;28;1979;-75
2022/02/10 18:17:51;;;;;;;;;;;;;;;25.68;26.56;100948.47;5069899;28;1343;-74
2022/02/10 18:20:22;;;;;;;;;;;;;;;26.28;25.60;100964.06;5087162;28;1451;-74
2022/02/10 18:23:02;;;;;;;;;;;;;;;25.95;26.17;100963.13;5088227;28;788;-74
2022/02/10 18:25:51;;;;;;;;;;;;;;;26.64;25.37;100962.53;5088191;28;1500;-76
2022/02/10 18:34:10;;;;;;;;;;;;;;;26.51;25.54;100953.19;5007842;28;1954;-79
2022/02/10 19:07:19;;;;;;;;;;;;;;;25.84;26.40;100978.59;5046832;28;1417;-80
2022/02/10 19:09:48;;;;;;;;;;;;;;;26.85;25.17;100970.50;5031487;28;1376;-77
2022/02/10 19:12:19;;;;;;;;;;;;;;;26.93;25.05;100974.94;5049043;28;1400;-78
2022/02/10 19:14:52;;;;;;;;;;;;;;;24.50;27.96;100975.06;5049680;28;1914;-77
2022/02/10 19:17:19;;;;;;;;;;;;;;;25.94;26.54;100969.78;5052804;28;1535;-78
2022/02/10 19:19:45;;;;;;;;;;;;;;;26.54;25.86;100968.59;5037755;28;1348;-78
2022/02/10 19:22:11;;;;;;;;;;;;;;;26.28;25.90;100973.25;5050874;28;1531;-81
2022/02/10 19:24:38;;;;;;;;;;;;;;;26.75;25.42;100974.88;5035669;28;959;-80
2022/02/10 19:27:04;;;;;;;;;;;;;;;26.74;25.20;100971.25;5049293;28;1453;-82
2022/02/10 19:29:32;;;;;;;;;;;;;;;26.14;25.95;100972.47;5032220;28;1596;-79
2022/02/10 19:31:58;;;;;;;;;;;;;;;25.81;26.31;100976.22;5048468;28;1492;-78
2022/02/10 19:34:31;;;;;;;;;;;;;;;26.28;26.04;100975.19;5043499;28;1973;-79
2022/02/10 19:36:57;;;;;;;;;;;;;;;27.07;24.98;100978.47;5033487;28;904;-79
2022/02/10 19:39:25;;;;;;;;;;;;;;;26.02;26.10;100977.00;5036685;28;1532;-79
2022/02/10 19:41:53;;;;;;;;;;;;;;;25.95;26.21;100987.28;5039066;28;1479;-81
2022/02/10 19:44:19;;;;;;;;;;;;;;;26.11;26.29;100974.84;5039054;28;1508;-79
2022/02/10 19:46:47;;;;;;;;;;;;;;;26.72;25.19;100973.41;5038380;28;950;-80
2022/02/10 19:49:19;;;;;;;;;;;;;;;26.60;25.60;100980.75;5042837;28;1542;-82
2022/02/10 19:51:47;;;;;;;;;;;;;;;25.70;26.37;100974.16;5045603;28;1468;-79
2022/02/10 19:54:14;;;;;;;;;;;;;;;27.13;24.59;100968.34;5036489;28;1922;-80
2022/02/10 19:56:41;;;;;;;;;;;;;;;26.09;25.95;100966.72;5040989;28;1520;-79
2022/02/10 19:59:08;;;;;;;;;;;;;;;25.96;26.03;100966.75;5056999;28;1321;-79
2022/02/10 20:01:34;;;;;;;;;;;;;;;26.68;25.43;100964.63;5054244;28;1472;-79
2022/02/10 20:04:08;;;;;;;;;;;;;;;26.66;25.43;100964.00;5056801;28;958;-77
2022/02/10 20:06:34;;;;;;;;;;;;;;;26.95;25.06;100964.47;5050152;28;1457;-81
2022/02/10 20:09:01;;;;;;;;;;;;;;;27.02;24.71;100961.59;5046658;28;1560;-80
2022/02/10 20:11:27;;;;;;;;;;;;;;;25.97;25.62;100971.25;5051908;28;1309;-80
2022/02/10 20:13:53;;;;;;;;;;;;;;;25.87;26.05;100969.78;5054435;28;1914;-80
2022/02/10 20:16:19;;;;;;;;;;;;;;;26.77;25.10;100965.22;5053791;28;1532;-81
2022/02/10 20:18:48;;;;;;;;;;;;;;;26.36;25.85;100967.44;5055436;28;1339;-81
2022/02/10 20:21:16;;;;;;;;;;;;;;;25.83;26.50;100968.53;5053296;28;1495;-78
2022/02/10 20:23:42;;;;;;;;;;;;;;;25.79;26.29;100966.41;5050241;28;1488;-79
2022/02/10 20:26:09;;;;;;;;;;;;;;;26.79;25.23;100965.88;5048086;28;1474;-78
2022/02/10 20:28:35;;;;;;;;;;;;;;;26.48;25.00;100952.78;5034187;28;1385;-78
2022/02/10 20:31:02;;;;;;;;;;;;;;;26.46;25.23;100961.38;5041111;28;1361;-80
2022/02/10 20:33:30;;;;;;;;;;;;;;;26.54;25.10;100963.03;5062050;28;1014;-76
2022/02/10 20:36:00;;;;;;;;;;;;;;;26.05;25.63;100963.53;5052543;28;1910;-82
2022/02/10 20:38:29;;;;;;;;;;;;;;;27.08;24.57;100971.81;5052085;28;1322;-78
2022/02/10 20:40:59;;;;;;;;;;;;;;;26.20;25.85;100965.16;5050170;28;1287;-79
2022/02/10 20:43:26;;;;;;;;;;;;;;;26.53;25.22;100966.88;5052132;28;828;-76
2022/02/10 20:45:57;;;;;;;;;;;;;;;27.01;24.90;100963.53;5051285;28;932;-80
2022/02/10 20:48:24;;;;;;;;;;;;;;;27.56;24.16;100971.13;5052697;28;1413;-77
2022/02/10 20:50:54;;;;;;;;;;;;;;;26.66;25.03;100960.38;5052864;28;776;-76
2022/02/10 20:53:20;;;;;;;;;;;;;;;26.87;24.48;100968.38;5053378;28;833;-76
2022/02/10 20:55:48;;;;;;;;;;;;;;;26.39;25.69;100960.56;5051624;28;1914;-78
2022/02/10 20:58:18;;;;;;;;;;;;;;;26.59;25.33;100967.91;5055462;28;1090;-79
2022/02/10 21:00:45;;;;;;;;;;;;;;;26.80;24.68;100967.56;5052782;28;1411;-82
2022/02/10 21:03:13;;;;;;;;;;;;;;;27.31;24.43;100973.09;5052243;28;962;-79
2022/02/10 21:05:41;;;;;;;;;;;;;;;27.39;24.58;100968.13;5051442;28;1166;-78
2022/02/10 21:08:12;;;;;;;;;;;;;;;27.16;24.77;100973.47;5051160;28;1271;-79
2022/02/10 21:10:40;;;;;;;;;;;;;;;27.81;23.78;100967.41;5054142;28;1377;-79
2022/02/10 21:13:10;;;;;;;;;;;;;;;26.74;24.65;100965.69;5051149;28;1969;-80
2022/02/10 21:15:41;;;;;;;;;;;;;;;26.71;24.94;100968.91;5054674;28;1926;-76
2022/02/10 21:18:08;;;;;;;;;;;;;;;26.00;26.14;100984.72;5041966;28;1102;-78
2022/02/10 21:20:36;;;;;;;;;;;;;;;26.27;26.42;101004.06;5052523;28;1293;-79
2022/02/10 21:23:12;;;;;;;;;;;;;;;21.94;29.66;101015.72;5051766;28;900;-77
2022/02/10 21:25:39;;;;;;;;;;;;;;;24.05;26.88;101012.47;5051602;28;849;-79
2022/02/10 21:28:14;;;;;;;;;;;;;;;22.60;28.56;101013.97;5052293;28;829;-78
2022/02/10 21:30:42;;;;;;;;;;;;;;;23.08;28.27;101019.72;5051951;28;1310;-79
2022/02/10 21:33:15;;;;;;;;;;;;;;;23.00;28.37;101011.56;5049985;28;758;-76
2022/02/10 21:36:02;;;;;;;;;;;;;;;22.16;29.02;101015.78;5037571;28;1975;-80
2022/02/10 21:38:29;;;;;;;;;;;;;;;21.94;29.44;101015.72;5030224;28;1335;-78
2022/02/10 21:41:24;;;;;;;;;;;;;;;22.64;28.39;101016.13;5013369;28;1165;-77
2022/02/10 21:55:24;;;;;;;;;;;;;;;22.10;28.20;101016.53;5030664;28;1922;-77
2022/02/10 22:03:44;;;;;;;;;;;;;;;23.38;26.95;101025.94;4994951;28;1335;-77
2022/02/10 22:06:29;;;;;;;;;;;;;;;23.44;26.66;101031.72;5030750;28;943;-80
2022/02/10 22:09:18;;;;;;;;;;;;;;;22.65;27.91;101023.38;5030371;28;1439;-80
2022/02/10 22:12:01;;;;;;;;;;;;;;;23.08;27.05;101026.09;5032174;28;990;-80
2022/02/10 22:17:34;;;;;;;;;;;;;;;22.97;27.17;101031.31;5031496;28;851;-79
2022/02/10 22:20:08;;;;;;;;;;;;;;;21.53;28.79;101033.63;5030252;28;1334;-81
2022/02/10 22:22:37;;;;;;;;;;;;;;;21.80;28.88;101041.47;5031767;28;999;-80
2022/02/10 22:25:09;;;;;;;;;;;;;;;22.73;28.02;101036.22;5035548;28;1002;-80
2022/02/10 22:27:40;;;;;;;;;;;;;;;22.21;28.54;101036.25;5031616;28;762;-79
2022/02/10 22:30:16;;;;;;;;;;;;;;;23.14;27.50;101037.47;5030772;28;1472;-80
2022/02/10 22:32:49;;;;;;;;;;;;;;;22.04;28.75;101038.38;5065598;28;740;-79
2022/02/10 22:35:16;;;;;;;;;;;;;;;21.38;28.42;101039.13;5051648;28;1930;-83
2022/02/10 22:37:45;;;;;;;;;;;;;;;22.92;27.36;101031.09;5054891;28;1042;-77
2022/02/10 22:40:36;;;;;;;;;;;;;;;23.69;26.48;101029.31;5054847;28;1298;-81
2022/02/10 22:43:00;;;;;;;;;;;;;;;23.49;26.20;101035.59;5053389;28;1232;-77
2022/02/10 22:45:26;;;;;;;;;;;;;;;24.27;25.36;101033.69;5053274;28;887;-79
2022/02/10 22:47:52;;;;;;;;;;;;;;;23.76;25.89;101035.75;5053720;28;956;-79
2022/02/10 22:50:20;;;;;;;;;;;;;;;24.03;25.57;101019.28;5055086;28;1279;-80
2022/02/10 22:52:46;;;;;;;;;;;;;;;24.80;24.80;100997.75;5053601;28;1254;-79
2022/02/10 22:55:12;;;;;;;;;;;;;;;24.65;24.71;100999.84;5054198;28;1977;-79
2022/02/10 22:57:39;;;;;;;;;;;;;;;24.08;25.26;101011.22;5054674;28;831;-81
2022/02/10 23:00:07;;;;;;;;;;;;;;;24.26;25.13;101001.47;5054979;28;1392;-81
2022/02/10 23:02:34;;;;;;;;;;;;;;;24.24;24.52;101004.44;5054656;28;998;-77
2022/02/10 23:05:00;;;;;;;;;;;;;;;24.99;24.38;101000.75;5054048;28;824;-76
2022/02/10 23:07:28;;;;;;;;;;;;;;;24.18;25.22;100999.72;5054222;28;1017;-77
2022/02/10 23:10:02;;;;;;;;;;;;;;;24.49;24.63;100996.41;5054425;28;1426;-79
2022/02/10 23:12:29;;;;;;;;;;;;;;;24.54;24.48;100996.59;5053587;28;895;-77
2022/02/10 23:14:56;;;;;;;;;;;;;;;24.74;24.25;100995.81;5052765;28;1915;-80
2022/02/10 23:17:22;;;;;;;;;;;;;;;24.67;24.65;100994.97;5055485;28;742;-78
2022/02/10 23:19:48;;;;;;;;;;;;;;;24.85;24.25;101000.75;5055346;28;1389;-80
2022/02/10 23:22:15;;;;;;;;;;;;;;;24.70;24.38;100997.31;5054984;28;971;-77
2022/02/10 23:24:42;;;;;;;;;;;;;;;25.05;24.01;101006.31;5053633;28;1283;-80
2022/02/10 23:27:08;;;;;;;;;;;;;;;24.51;24.36;101005.34;5055097;28;1049;-79
2022/02/10 23:29:35;;;;;;;;;;;;;;;24.95;24.45;101016.09;5054411;28;1332;-78
2022/02/10 23:32:03;;;;;;;;;;;;;;;25.23;23.42;101016.75;5054343;28;1074;-79
2022/02/10 23:34:29;;;;;;;;;;;;;;;24.55;24.44;101012.19;5052253;28;1474;-77
2022/02/10 23:36:55;;;;;;;;;;;;;;;23.63;25.65;101019.91;5036371;28;1926;-79
2022/02/10 23:39:26;;;;;;;;;;;;;;;23.34;25.80;101021.88;5053129;28;1326;-78
2022/02/10 23:42:04;;;;;;;;;;;;;;;24.32;24.70;101007.03;5054486;28;845;-77
2022/02/10 23:44:33;;;;;;;;;;;;;;;24.72;24.36;101011.84;5052208;28;1010;-80
2022/02/10 23:47:02;;;;;;;;;;;;;;;24.00;25.13;101020.56;5053559;28;1317;-80
2022/02/10 23:49:30;;;;;;;;;;;;;;;24.35;24.47;101016.84;5055920;28;1298;-79
2022/02/10 23:51:59;;;;;;;;;;;;;;;24.40;24.49;101008.75;5053841;28;1089;-81
2022/02/10 23:54:26;;;;;;;;;;;;;;;24.88;24.05;101014.19;5053548;28;912;-79
2022/02/10 23:56:59;;;;;;;;;;;;;;;24.30;24.89;101013.84;5055336;28;1977;-80
2022/02/10 23:59:38;;;;;;;;;;;;;;;23.42;25.76;101017.22;5054356;28;1358;-81
